createdAt,value
2019-05-07T00:01:12.256Z,-0.30
2019-05-07T00:03:39.228Z,-0.30
2019-05-07T00:06:05.943Z,-0.40
2019-05-07T00:08:32.702Z,-0.40
2019-05-07T00:11:02.325Z,-0.40
2019-05-07T00:13:28.955Z,-0.40
2019-05-07T00:15:55.695Z,-0.30
2019-05-07T00:18:23.079Z,-0.30
2019-05-07T00:20:49.952Z,-0.40
2019-05-07T00:23:16.711Z,-0.50
2019-05-07T00:25:43.504Z,-0.40
2019-05-07T00:28:12.256Z,-0.50
2019-05-07T00:30:38.783Z,-0.40
2019-05-07T00:33:05.572Z,-0.50
2019-05-07T00:35:32.468Z,-0.50
2019-05-07T00:37:59.163Z,-0.60
2019-05-07T00:40:25.983Z,-0.60
2019-05-07T00:42:53.041Z,-0.60
2019-05-07T00:45:21.595Z,-0.70
2019-05-07T00:47:48.938Z,-0.80
2019-05-07T00:50:15.783Z,-1.00
2019-05-07T00:52:43.085Z,-1.00
2019-05-07T00:55:11.972Z,-0.90
2019-05-07T00:57:38.558Z,-1.00
2019-05-07T01:00:05.796Z,-0.90
2019-05-07T01:02:32.611Z,-0.80
2019-05-07T01:04:59.336Z,-1.00
2019-05-07T01:07:26.107Z,-1.00
2019-05-07T01:09:52.917Z,-1.00
2019-05-07T01:12:19.692Z,-1.00
2019-05-07T01:14:46.413Z,-1.00
2019-05-07T01:17:13.237Z,-1.00
2019-05-07T01:19:42.224Z,-1.10
2019-05-07T01:22:08.524Z,-1.20
2019-05-07T01:24:35.399Z,-1.30
2019-05-07T01:27:02.257Z,-1.30
2019-05-07T01:29:29.007Z,-1.40
2019-05-07T01:31:55.800Z,-1.30
2019-05-07T01:34:23.061Z,-1.40
2019-05-07T01:36:52.237Z,-1.40
2019-05-07T01:39:18.576Z,-1.40
2019-05-07T01:41:45.322Z,-1.50
2019-05-07T01:44:12.856Z,-1.50
2019-05-07T01:46:42.080Z,-1.50
2019-05-07T01:49:08.427Z,-1.40
2019-05-07T01:51:35.162Z,-1.40
2019-05-07T01:54:02.311Z,-1.40
2019-05-07T01:56:29.228Z,-1.50
2019-05-07T01:58:55.954Z,-1.50
2019-05-07T02:01:22.860Z,-1.60
2019-05-07T02:03:49.623Z,-1.60
2019-05-07T02:06:16.372Z,-1.60
2019-05-07T02:08:43.192Z,-1.60
2019-05-07T02:11:09.904Z,-1.60
2019-05-07T02:13:36.717Z,-1.60
2019-05-07T02:16:04.304Z,-1.70
2019-05-07T02:18:32.601Z,-1.70
2019-05-07T02:20:59.960Z,-1.60
2019-05-07T02:23:26.738Z,-1.60
2019-05-07T02:25:53.493Z,-1.50
2019-05-07T02:28:22.178Z,-1.60
2019-05-07T02:30:48.862Z,-1.60
2019-05-07T02:33:15.619Z,-1.70
2019-05-07T02:35:43.855Z,-1.70
2019-05-07T02:38:13.704Z,-1.80
2019-05-07T02:40:39.627Z,-2.00
2019-05-07T02:43:06.570Z,-1.90
2019-05-07T02:45:33.507Z,-1.90
2019-05-07T02:48:03.246Z,-2.00
2019-05-07T02:50:28.816Z,-2.00
2019-05-07T02:52:55.618Z,-2.00
2019-05-07T02:55:23.175Z,-1.90
2019-05-07T02:57:50.214Z,-1.90
2019-05-07T03:00:19.539Z,-1.90
2019-05-07T03:02:45.620Z,-1.90
2019-05-07T03:05:13.644Z,-2.00
2019-05-07T03:07:42.803Z,-1.90
2019-05-07T03:10:09.336Z,-2.00
2019-05-07T03:12:36.446Z,-2.10
2019-05-07T03:15:04.773Z,-2.10
2019-05-07T03:17:33.296Z,-2.20
2019-05-07T03:20:03.147Z,-2.20
2019-05-07T03:22:28.993Z,-2.30
2019-05-07T03:24:55.750Z,-2.30
2019-05-07T03:27:23.459Z,-2.20
2019-05-07T03:29:53.320Z,-2.30
2019-05-07T03:32:19.116Z,-2.30
2019-05-07T03:34:47.172Z,-2.40
2019-05-07T03:37:14.276Z,-2.50
2019-05-07T03:39:43.334Z,-2.40
2019-05-07T03:42:12.752Z,-2.30
2019-05-07T03:44:38.207Z,-2.30
2019-05-07T03:47:06.438Z,-2.40
2019-05-07T03:49:34.192Z,-2.40
2019-05-07T03:52:04.199Z,-2.40
2019-05-07T03:54:29.892Z,-2.40
2019-05-07T03:56:56.609Z,-2.50
2019-05-07T03:59:23.512Z,-2.40
2019-05-07T04:01:53.585Z,-2.50
2019-05-07T04:04:18.863Z,-2.60
2019-05-07T04:06:45.689Z,-2.60
2019-05-07T04:09:13.373Z,-2.60
2019-05-07T04:11:43.060Z,-2.50
2019-05-07T04:14:08.932Z,-2.50
2019-05-07T04:16:35.660Z,-2.50
2019-05-07T04:19:03.850Z,-2.60
2019-05-07T04:21:34.149Z,-2.70
2019-05-07T04:23:59.322Z,-2.60
2019-05-07T04:26:26.081Z,-2.50
2019-05-07T04:28:53.955Z,-2.60
2019-05-07T04:31:22.933Z,-2.50
2019-05-07T04:33:49.565Z,-2.50
2019-05-07T04:36:16.425Z,-2.50
2019-05-07T04:38:43.957Z,-2.50
2019-05-07T04:41:13.608Z,-2.60
2019-05-07T04:43:43.183Z,-2.60
2019-05-07T04:46:08.333Z,-2.50
2019-05-07T04:48:35.074Z,-2.40
2019-05-07T04:51:03.540Z,-2.60
2019-05-07T04:53:32.850Z,-2.60
2019-05-07T04:55:58.957Z,-2.70
2019-05-07T04:58:26.746Z,-2.70
2019-05-07T05:00:53.950Z,-2.80
2019-05-07T05:03:23.417Z,-2.80
2019-05-07T05:05:49.340Z,-2.70
2019-05-07T05:08:16.089Z,-2.70
2019-05-07T05:10:43.419Z,-2.80
2019-05-07T05:13:12.622Z,-2.70
2019-05-07T05:15:38.911Z,-2.70
2019-05-07T05:18:05.622Z,-2.70
2019-05-07T05:20:33.633Z,-2.70
2019-05-07T05:23:20.200Z,-2.70
2019-05-07T05:25:47.084Z,-2.70
2019-05-07T05:28:13.838Z,-2.70
2019-05-07T05:30:42.724Z,-2.70
2019-05-07T05:33:09.529Z,-2.60
2019-05-07T05:35:36.382Z,-2.60
2019-05-07T05:38:03.838Z,-2.50
2019-05-07T05:40:31.971Z,-2.40
2019-05-07T05:42:58.888Z,-2.50
2019-05-07T05:45:25.673Z,-2.40
2019-05-07T05:48:04.434Z,-2.30
2019-05-07T05:50:21.874Z,-2.20
2019-05-07T05:52:48.617Z,-2.20
2019-05-07T05:55:15.437Z,-2.00
2019-05-07T05:57:42.478Z,-2.00
2019-05-07T06:00:12.448Z,-1.90
2019-05-07T06:02:38.726Z,-1.80
2019-05-07T06:05:05.540Z,-1.60
2019-05-07T06:07:32.254Z,-1.50
2019-05-07T06:09:59.077Z,-1.40
2019-05-07T06:12:25.804Z,-1.40
2019-05-07T06:14:53.886Z,-1.30
2019-05-07T06:17:22.395Z,-1.20
2019-05-07T06:19:49.291Z,-1.10
2019-05-07T06:22:16.809Z,-1.00
2019-05-07T06:24:43.734Z,-1.00
2019-05-07T06:27:12.268Z,-0.80
2019-05-07T06:29:39.037Z,-0.70
2019-05-07T06:32:05.839Z,-0.60
2019-05-07T06:34:34.267Z,-0.50
2019-05-07T06:37:02.321Z,-0.40
2019-05-07T06:39:29.349Z,-0.40
2019-05-07T06:41:56.093Z,-0.30
2019-05-07T06:44:22.819Z,-0.20
2019-05-07T06:46:49.614Z,-0.10
2019-05-07T06:49:16.364Z,0.00
2019-05-07T06:51:43.085Z,0.10
2019-05-07T06:54:09.916Z,0.20
2019-05-07T06:56:36.646Z,0.30
2019-05-07T06:59:03.476Z,0.30
2019-05-07T07:01:32.255Z,0.40
2019-05-07T07:03:58.885Z,0.50
2019-05-07T07:06:25.656Z,0.60
2019-05-07T07:08:52.662Z,0.70
2019-05-07T07:11:19.486Z,0.70
2019-05-07T07:13:46.209Z,0.80
2019-05-07T07:16:13.081Z,0.80
2019-05-07T07:18:49.523Z,0.90
2019-05-07T07:21:08.440Z,1.00
2019-05-07T07:23:35.258Z,1.10
2019-05-07T07:26:03.119Z,1.20
2019-05-07T07:28:32.406Z,1.20
2019-05-07T07:30:58.787Z,1.30
2019-05-07T07:33:25.516Z,1.30
2019-05-07T07:35:52.246Z,1.40
2019-05-07T07:38:19.021Z,1.50
2019-05-07T07:40:45.738Z,1.60
2019-05-07T07:43:12.994Z,1.60
2019-05-07T07:45:41.903Z,1.70
2019-05-07T07:48:08.330Z,1.70
2019-05-07T07:50:35.060Z,1.80
2019-05-07T07:53:02.515Z,1.90
2019-05-07T07:55:29.477Z,2.00
2019-05-07T07:57:56.203Z,2.10
2019-05-07T08:00:23.427Z,2.20
2019-05-07T08:02:50.246Z,2.30
2019-05-07T08:05:17.085Z,2.40
2019-05-07T08:07:43.877Z,2.40
2019-05-07T08:10:12.866Z,2.50
2019-05-07T08:12:41.972Z,2.50
2019-05-07T08:15:16.718Z,2.50
2019-05-07T08:17:37.132Z,2.60
2019-05-07T08:20:06.269Z,2.60
2019-05-07T08:22:33.184Z,2.60
2019-05-07T08:25:01.754Z,2.70
2019-05-07T08:27:28.459Z,2.70
2019-05-07T08:29:55.267Z,2.80
2019-05-07T08:32:22.397Z,2.90
2019-05-07T08:34:49.475Z,3.00
2019-05-07T08:37:16.287Z,3.10
2019-05-07T08:39:43.088Z,3.20
2019-05-07T08:42:12.103Z,3.30
2019-05-07T08:44:38.427Z,3.30
2019-05-07T08:47:05.142Z,3.40
2019-05-07T08:49:39.399Z,3.50
2019-05-07T08:52:03.099Z,3.60
2019-05-07T08:54:32.922Z,3.60
2019-05-07T08:57:01.978Z,3.80
2019-05-07T08:59:28.880Z,3.90
2019-05-07T09:01:55.625Z,3.90
2019-05-07T09:04:22.590Z,4.00
2019-05-07T09:06:49.611Z,4.10
2019-05-07T09:09:16.374Z,4.30
2019-05-07T09:11:43.283Z,4.60
2019-05-07T09:14:12.255Z,4.90
2019-05-07T09:16:38.603Z,4.80
2019-05-07T09:19:05.575Z,4.80
2019-05-07T09:21:33.171Z,4.80
2019-05-07T09:23:59.903Z,4.80
2019-05-07T09:26:26.661Z,4.80
2019-05-07T09:28:53.533Z,4.80
2019-05-07T09:31:22.326Z,4.80
2019-05-07T09:33:48.917Z,5.10
2019-05-07T09:36:15.720Z,5.20
2019-05-07T09:38:55.226Z,5.20
2019-05-07T09:41:12.035Z,5.20
2019-05-07T09:43:38.975Z,5.30
2019-05-07T09:46:05.714Z,5.40
2019-05-07T09:48:33.852Z,5.50
2019-05-07T09:51:02.305Z,5.50
2019-05-07T09:53:29.179Z,5.50
2019-05-07T09:55:55.935Z,5.60
2019-05-07T09:58:35.770Z,5.80
2019-05-07T10:00:51.665Z,5.90
2019-05-07T10:03:18.526Z,5.90
2019-05-07T10:05:45.328Z,6.00
2019-05-07T10:08:12.882Z,5.90
2019-05-07T10:10:41.682Z,6.00
2019-05-07T10:13:08.597Z,6.20
2019-05-07T10:15:35.344Z,6.30
2019-05-07T10:18:02.187Z,6.20
2019-05-07T10:20:30.104Z,6.20
2019-05-07T10:22:57.556Z,6.30
2019-05-07T10:25:24.390Z,6.40
2019-05-07T10:27:53.129Z,6.50
2019-05-07T10:30:21.903Z,6.60
2019-05-07T10:32:48.622Z,6.80
2019-05-07T10:35:16.385Z,7.00
2019-05-07T10:37:43.088Z,7.10
2019-05-07T10:40:12.273Z,7.20
2019-05-07T10:42:39.251Z,7.20
2019-05-07T10:45:06.824Z,7.50
2019-05-07T10:47:33.565Z,7.50
2019-05-07T10:50:02.778Z,7.50
2019-05-07T10:52:29.174Z,7.60
2019-05-07T10:55:03.846Z,7.70
2019-05-07T10:57:32.886Z,7.80
2019-05-07T11:00:03.023Z,7.90
2019-05-07T11:02:29.325Z,8.20
2019-05-07T11:04:56.121Z,8.40
2019-05-07T11:07:22.970Z,8.60
2019-05-07T11:09:49.724Z,8.90
2019-05-07T11:12:16.546Z,9.10
2019-05-07T11:14:43.875Z,9.30
2019-05-07T11:17:11.866Z,9.50
2019-05-07T11:19:38.867Z,9.70
2019-05-07T11:22:05.628Z,10.00
2019-05-07T11:24:32.361Z,10.20
2019-05-07T11:26:59.247Z,10.40
2019-05-07T11:29:25.997Z,10.70
2019-05-07T11:31:55.521Z,10.80
2019-05-07T11:34:22.407Z,11.00
2019-05-07T11:36:49.171Z,11.10
2019-05-07T11:39:15.902Z,11.10
2019-05-07T11:41:42.829Z,11.20
2019-05-07T11:44:09.491Z,11.30
2019-05-07T11:46:36.227Z,11.40
2019-05-07T11:49:03.203Z,11.40
2019-05-07T11:51:29.961Z,11.60
2019-05-07T11:53:56.671Z,11.80
2019-05-07T11:56:23.660Z,11.80
2019-05-07T11:58:52.833Z,12.10
2019-05-07T12:01:19.222Z,12.30
2019-05-07T12:03:46.160Z,12.40
2019-05-07T12:06:13.006Z,12.50
2019-05-07T12:08:48.137Z,12.50
2019-05-07T12:11:08.456Z,12.70
2019-05-07T12:13:35.227Z,12.80
2019-05-07T12:16:02.951Z,13.10
2019-05-07T12:18:31.980Z,13.30
2019-05-07T12:20:58.750Z,13.50
2019-05-07T12:23:25.517Z,13.70
2019-05-07T12:25:52.879Z,13.80
2019-05-07T12:28:19.917Z,13.90
2019-05-07T12:30:46.701Z,14.00
2019-05-07T12:33:13.590Z,14.10
2019-05-07T12:35:42.091Z,14.20
2019-05-07T12:38:08.910Z,14.40
2019-05-07T12:40:35.803Z,14.50
2019-05-07T12:43:02.668Z,14.50
2019-05-07T12:45:29.487Z,14.50
2019-05-07T12:47:56.359Z,14.60
2019-05-07T12:50:23.128Z,14.70
2019-05-07T12:52:49.927Z,14.80
2019-05-07T12:55:16.906Z,14.70
2019-05-07T12:57:43.667Z,14.60
2019-05-07T13:00:12.260Z,14.70
2019-05-07T13:02:42.085Z,14.60
2019-05-07T13:05:07.900Z,14.70
2019-05-07T13:07:34.676Z,14.70
2019-05-07T13:10:02.598Z,14.80
2019-05-07T13:12:29.481Z,14.70
2019-05-07T13:14:56.251Z,14.60
2019-05-07T13:17:23.114Z,14.60
2019-05-07T13:19:49.950Z,14.70
2019-05-07T13:22:22.564Z,14.70
2019-05-07T13:24:49.337Z,14.80
2019-05-07T13:27:16.146Z,14.90
2019-05-07T13:29:44.916Z,14.80
2019-05-07T13:32:13.803Z,15.00
2019-05-07T13:34:42.575Z,14.90
2019-05-07T13:37:12.729Z,14.50
2019-05-07T13:39:40.064Z,14.30
2019-05-07T13:42:07.076Z,14.10
2019-05-07T13:44:34.233Z,13.90
2019-05-07T13:47:02.063Z,13.70
2019-05-07T13:49:29.719Z,13.60
2019-05-07T13:52:03.529Z,13.30
2019-05-07T13:54:25.135Z,13.40
2019-05-07T13:56:52.542Z,13.60
2019-05-07T13:59:19.465Z,13.80
2019-05-07T14:01:46.290Z,13.90
2019-05-07T14:04:13.158Z,14.10
2019-05-07T14:06:42.978Z,14.10
2019-05-07T14:09:12.257Z,14.30
2019-05-07T14:11:39.154Z,14.50
2019-05-07T14:14:05.924Z,14.60
2019-05-07T14:16:32.759Z,14.80
2019-05-07T14:18:59.696Z,14.90
2019-05-07T14:21:26.512Z,15.20
2019-05-07T14:23:53.323Z,15.40
2019-05-07T14:26:23.740Z,15.60
2019-05-07T14:28:48.652Z,15.80
2019-05-07T14:31:16.336Z,15.90
2019-05-07T14:33:43.081Z,16.00
2019-05-07T14:36:11.621Z,16.10
2019-05-07T14:38:38.405Z,16.40
2019-05-07T14:41:05.161Z,16.30
2019-05-07T14:43:32.458Z,16.30
2019-05-07T14:45:59.356Z,16.30
2019-05-07T14:48:26.249Z,16.40
2019-05-07T14:50:53.104Z,15.90
2019-05-07T14:53:22.378Z,16.10
2019-05-07T14:55:49.180Z,16.10
2019-05-07T14:58:17.808Z,16.40
2019-05-07T15:00:44.660Z,16.70
2019-05-07T15:03:12.489Z,16.80
2019-05-07T15:05:39.476Z,17.10
2019-05-07T15:08:10.517Z,16.90
2019-05-07T15:10:35.019Z,16.90
2019-05-07T15:13:02.337Z,16.90
2019-05-07T15:15:29.489Z,17.10
2019-05-07T15:17:57.034Z,17.30
2019-05-07T15:20:24.411Z,16.70
2019-05-07T15:22:52.646Z,16.70
2019-05-07T15:25:22.529Z,16.30
2019-05-07T15:27:49.835Z,16.30
2019-05-07T15:30:18.011Z,15.70
2019-05-07T15:32:44.815Z,15.80
2019-05-07T15:35:12.602Z,15.30
2019-05-07T15:37:39.582Z,15.00
2019-05-07T15:40:07.748Z,14.90
2019-05-07T15:42:34.519Z,15.20
2019-05-07T15:45:02.325Z,15.30
2019-05-07T15:47:31.540Z,15.10
2019-05-07T15:49:57.926Z,15.00
2019-05-07T15:52:24.915Z,14.50
2019-05-07T15:54:52.298Z,14.20
2019-05-07T15:57:19.138Z,14.10
2019-05-07T15:59:45.988Z,14.10
2019-05-07T16:02:12.780Z,14.10
2019-05-07T16:04:39.539Z,14.30
2019-05-07T16:07:06.371Z,14.50
2019-05-07T16:09:33.382Z,14.30
2019-05-07T16:12:00.134Z,14.30
2019-05-07T16:14:27.210Z,13.90
2019-05-07T16:16:54.045Z,13.50
2019-05-07T16:19:20.929Z,13.20
2019-05-07T16:21:48.296Z,13.10
2019-05-07T16:24:15.051Z,12.90
2019-05-07T16:26:42.048Z,12.80
2019-05-07T16:29:08.958Z,12.40
2019-05-07T16:31:35.919Z,12.30
2019-05-07T16:34:05.710Z,12.40
2019-05-07T16:36:33.007Z,12.30
2019-05-07T16:38:59.919Z,12.30
2019-05-07T16:41:26.651Z,12.10
2019-05-07T16:43:53.487Z,12.10
2019-05-07T16:46:22.278Z,12.00
2019-05-07T16:48:48.895Z,11.90
2019-05-07T16:51:15.724Z,11.80
2019-05-07T16:53:42.485Z,11.50
2019-05-07T16:56:09.291Z,11.40
2019-05-07T16:58:36.117Z,11.30
2019-05-07T17:01:03.065Z,11.20
2019-05-07T17:03:31.760Z,11.10
2019-05-07T17:05:58.789Z,11.00
2019-05-07T17:08:25.529Z,11.00
2019-05-07T17:10:52.456Z,10.90
2019-05-07T17:13:19.287Z,10.90
2019-05-07T17:15:46.143Z,10.90
2019-05-07T17:18:12.918Z,10.80
2019-05-07T17:20:39.771Z,10.80
2019-05-07T17:23:06.563Z,10.60
2019-05-07T17:25:33.491Z,10.60
2019-05-07T17:28:00.323Z,10.50
2019-05-07T17:30:27.131Z,10.40
2019-05-07T17:32:53.902Z,10.20
2019-05-07T17:35:22.443Z,10.20
2019-05-07T17:37:49.310Z,10.10
2019-05-07T17:40:18.026Z,10.00
2019-05-07T17:42:46.701Z,10.00
2019-05-07T17:45:13.685Z,9.90
2019-05-07T17:47:42.367Z,9.90
2019-05-07T17:50:09.491Z,9.80
2019-05-07T17:52:36.274Z,9.70
2019-05-07T17:55:05.640Z,9.60
2019-05-07T17:57:33.459Z,9.60
2019-05-07T18:00:02.211Z,9.40
2019-05-07T18:02:32.194Z,9.40
2019-05-07T18:04:59.236Z,9.30
2019-05-07T18:07:26.013Z,9.30
2019-05-07T18:09:52.751Z,9.20
2019-05-07T18:12:22.486Z,9.20
2019-05-07T18:14:49.509Z,9.10
2019-05-07T18:17:16.264Z,9.00
2019-05-07T18:19:44.445Z,8.90
2019-05-07T18:22:12.779Z,8.80
2019-05-07T18:24:41.885Z,8.80
2019-05-07T18:27:08.641Z,8.70
2019-05-07T18:29:35.621Z,8.60
2019-05-07T18:32:02.534Z,8.60
2019-05-07T18:34:29.350Z,8.50
2019-05-07T18:36:56.102Z,8.50
2019-05-07T18:39:22.899Z,8.40
2019-05-07T18:41:49.781Z,8.30
2019-05-07T18:44:16.607Z,8.10
2019-05-07T18:46:43.362Z,8.20
2019-05-07T18:49:10.198Z,8.20
2019-05-07T18:51:36.981Z,8.20
2019-05-07T18:54:03.758Z,8.00
2019-05-07T18:56:30.664Z,7.90
2019-05-07T18:58:57.435Z,7.80
2019-05-07T19:01:24.198Z,7.70
2019-05-07T19:03:52.592Z,7.80
2019-05-07T19:06:19.371Z,7.70
2019-05-07T19:08:46.928Z,7.60
2019-05-07T19:11:13.855Z,7.60
2019-05-07T19:13:41.947Z,7.50
2019-05-07T19:16:09.045Z,7.50
2019-05-07T19:18:35.865Z,7.50
2019-05-07T19:21:02.730Z,7.50
2019-05-07T19:23:29.479Z,7.40
2019-05-07T19:25:56.778Z,7.40
2019-05-07T19:28:23.532Z,7.20
2019-05-07T19:30:52.554Z,7.20
2019-05-07T19:33:18.936Z,7.20
2019-05-07T19:35:45.734Z,7.20
2019-05-07T19:38:12.503Z,7.20
2019-05-07T19:40:39.369Z,7.10
2019-05-07T19:43:06.112Z,7.10
2019-05-07T19:45:32.891Z,7.10
2019-05-07T19:47:59.704Z,7.00
2019-05-07T19:50:26.452Z,7.00
2019-05-07T19:52:53.223Z,6.90
2019-05-07T19:55:21.846Z,6.80
2019-05-07T19:57:48.602Z,6.80
2019-05-07T20:00:16.969Z,6.80
2019-05-07T20:02:43.828Z,6.80
2019-05-07T20:05:12.131Z,6.80
2019-05-07T20:07:38.979Z,6.70
2019-05-07T20:10:06.071Z,6.80
2019-05-07T20:12:32.867Z,6.70
2019-05-07T20:14:59.618Z,6.70
2019-05-07T20:17:26.547Z,6.60
2019-05-07T20:19:53.323Z,6.70
2019-05-07T20:22:22.050Z,6.60
2019-05-07T20:24:48.718Z,6.60
2019-05-07T20:27:15.505Z,6.60
2019-05-07T20:29:42.780Z,6.50
2019-05-07T20:32:09.842Z,6.50
2019-05-07T20:34:36.616Z,6.60
2019-05-07T20:37:03.384Z,6.60
2019-05-07T20:39:32.128Z,6.60
2019-05-07T20:41:58.767Z,6.50
2019-05-07T20:44:25.544Z,6.50
2019-05-07T20:46:53.552Z,6.50
2019-05-07T20:49:22.533Z,6.50
2019-05-07T20:51:49.815Z,6.50
2019-05-07T20:54:17.077Z,6.40
2019-05-07T20:56:46.624Z,6.50
2019-05-07T20:59:13.227Z,6.50
2019-05-07T21:01:42.010Z,6.50
2019-05-07T21:04:08.779Z,6.50
2019-05-07T21:06:35.550Z,6.50
2019-05-07T21:09:04.953Z,6.40
2019-05-07T21:11:32.323Z,6.40
2019-05-07T21:13:59.339Z,6.50
2019-05-07T21:16:26.200Z,6.40
2019-05-07T21:18:53.006Z,6.40
2019-05-07T21:21:21.777Z,6.40
2019-05-07T21:23:48.421Z,6.30
2019-05-07T21:26:15.247Z,6.30
2019-05-07T21:28:43.134Z,6.30
2019-05-07T21:31:11.944Z,6.20
2019-05-07T21:33:38.855Z,6.20
2019-05-07T21:36:05.616Z,6.20
2019-05-07T21:38:33.042Z,6.00
2019-05-07T21:40:59.892Z,5.90
2019-05-07T21:43:26.636Z,5.70
2019-05-07T21:45:53.565Z,5.60
2019-05-07T21:48:22.262Z,5.40
2019-05-07T21:50:49.108Z,4.80
2019-05-07T21:53:16.131Z,4.80
2019-05-07T21:55:44.262Z,4.90
2019-05-07T21:58:11.819Z,4.80
2019-05-07T22:00:39.145Z,4.80
2019-05-07T22:03:06.111Z,4.90
2019-05-07T22:05:32.849Z,4.90
2019-05-07T22:08:01.477Z,4.70
2019-05-07T22:10:28.227Z,4.60
2019-05-07T22:12:54.988Z,4.50
2019-05-07T22:15:22.460Z,4.40
2019-05-07T22:17:49.252Z,4.40
2019-05-07T22:20:16.027Z,4.40
2019-05-07T22:22:42.941Z,4.40
2019-05-07T22:25:09.902Z,4.50
2019-05-07T22:27:36.902Z,4.30
2019-05-07T22:30:07.249Z,4.30
2019-05-07T22:32:34.082Z,4.20
2019-05-07T22:35:02.826Z,4.10
2019-05-07T22:37:29.442Z,4.20
2019-05-07T22:39:56.196Z,4.10
2019-05-07T22:42:22.941Z,4.10
2019-05-07T22:44:49.850Z,4.20
2019-05-07T22:47:16.638Z,4.20
2019-05-07T22:49:44.928Z,4.10
2019-05-07T22:52:12.764Z,4.00
2019-05-07T22:54:39.707Z,3.90
2019-05-07T22:57:06.481Z,3.90
2019-05-07T22:59:33.399Z,3.90
2019-05-07T23:02:02.881Z,4.00
2019-05-07T23:04:28.744Z,3.80
2019-05-07T23:06:55.589Z,3.80
2019-05-07T23:09:22.569Z,3.80
2019-05-07T23:11:49.428Z,3.70
2019-05-07T23:14:16.254Z,3.70
2019-05-07T23:16:43.132Z,3.70
2019-05-07T23:19:09.874Z,3.60
2019-05-07T23:21:36.669Z,3.60
2019-05-07T23:24:03.454Z,3.60
2019-05-07T23:26:33.541Z,3.60
2019-05-07T23:28:58.999Z,3.50
2019-05-07T23:31:25.788Z,3.40
2019-05-07T23:33:52.549Z,3.50
2019-05-07T23:36:19.405Z,3.50
2019-05-07T23:38:46.137Z,3.50
2019-05-07T23:41:12.919Z,3.40
2019-05-07T23:43:39.832Z,3.40
2019-05-07T23:46:06.613Z,3.40
2019-05-07T23:48:33.389Z,3.30
2019-05-07T23:51:02.073Z,3.40
2019-05-07T23:53:28.841Z,3.30
2019-05-07T23:55:55.620Z,3.30
2019-05-07T23:58:23.078Z,3.20
